createdAt,value
2018-05-29T00:00:58.552Z,100701.77
2018-05-29T00:03:27.729Z,100703.80
2018-05-29T00:06:00.783Z,100706.74
2018-05-29T00:08:33.325Z,100703.60
2018-05-29T00:11:02.272Z,100706.74
2018-05-29T00:13:31.271Z,100709.55
2018-05-29T00:16:01.486Z,100712.72
2018-05-29T00:18:30.526Z,100713.11
2018-05-29T00:20:59.502Z,100704.22
2018-05-29T00:23:28.642Z,100694.39
2018-05-29T00:26:02.120Z,100685.06
2018-05-29T00:28:31.164Z,100696.12
2018-05-29T00:31:00.555Z,100697.58
2018-05-29T00:33:29.506Z,100691.05
2018-05-29T00:36:00.256Z,100690.03
2018-05-29T00:38:31.822Z,100688.05
2018-05-29T00:41:00.870Z,100690.72
2018-05-29T00:43:33.392Z,100693.31
2018-05-29T00:46:04.105Z,100695.44
2018-05-29T00:48:39.332Z,100691.91
2018-05-29T00:51:08.355Z,100689.91
2018-05-29T00:53:37.898Z,100683.69
2018-05-29T00:56:10.362Z,100680.45
2018-05-29T00:58:41.821Z,100673.36
2018-05-29T01:01:10.849Z,100672.56
2018-05-29T01:03:39.807Z,100677.88
2018-05-29T01:06:08.778Z,100680.39
2018-05-29T01:08:39.765Z,100677.99
2018-05-29T01:11:08.840Z,100675.70
2018-05-29T01:13:46.243Z,100673.69
2018-05-29T01:16:15.249Z,100669.80
2018-05-29T01:18:44.222Z,100668.00
2018-05-29T01:21:13.277Z,100666.31
2018-05-29T01:23:46.418Z,100666.20
2018-05-29T01:26:15.494Z,100660.27
2018-05-29T01:28:46.037Z,100665.43
2018-05-29T01:31:16.774Z,100670.56
2018-05-29T01:33:45.758Z,100666.42
2018-05-29T01:36:17.614Z,100669.89
2018-05-29T01:38:47.794Z,100668.07
2018-05-29T01:41:18.867Z,100668.76
2018-05-29T01:43:49.555Z,100665.51
2018-05-29T01:46:20.186Z,100666.72
2018-05-29T01:48:50.468Z,100662.09
2018-05-29T01:51:21.670Z,100656.84
2018-05-29T01:54:01.731Z,100660.06
2018-05-29T01:56:39.417Z,100658.92
2018-05-29T01:59:08.463Z,100660.05
2018-05-29T02:01:37.429Z,100654.73
2018-05-29T02:04:06.515Z,100660.37
2018-05-29T02:06:40.234Z,100659.34
2018-05-29T02:09:09.593Z,100649.48
2018-05-29T02:11:38.996Z,100649.00
2018-05-29T02:14:08.451Z,100643.55
2018-05-29T02:16:37.514Z,100642.80
2018-05-29T02:19:07.193Z,100643.45
2018-05-29T02:21:38.142Z,100639.22
2018-05-29T02:24:07.137Z,100641.63
2018-05-29T02:26:36.107Z,100643.58
2018-05-29T02:29:06.991Z,100640.23
2018-05-29T02:31:37.807Z,100644.41
2018-05-29T02:34:11.932Z,100629.08
2018-05-29T02:36:40.894Z,100633.37
2018-05-29T02:39:11.618Z,100629.83
2018-05-29T02:41:41.404Z,100633.37
2018-05-29T02:44:18.720Z,100634.98
2018-05-29T02:46:48.280Z,100616.53
2018-05-29T02:49:17.255Z,100626.45
2018-05-29T02:51:51.177Z,100636.69
2018-05-29T02:54:20.462Z,100630.84
2018-05-29T02:56:49.647Z,100644.63
2018-05-29T02:59:18.691Z,100644.57
2018-05-29T03:01:47.661Z,100639.19
2018-05-29T03:04:19.230Z,100641.73
2018-05-29T03:06:50.036Z,100640.80
2018-05-29T03:09:20.691Z,100639.31
2018-05-29T03:11:56.903Z,100640.02
2018-05-29T03:14:28.587Z,100637.34
2018-05-29T03:16:57.601Z,100639.42
2018-05-29T03:19:28.058Z,100645.95
2018-05-29T03:21:57.093Z,100647.73
2018-05-29T03:24:26.669Z,100647.30
2018-05-29T03:26:55.858Z,100650.35
2018-05-29T03:29:39.564Z,100642.34
2018-05-29T03:32:09.161Z,100640.25
2018-05-29T03:34:38.130Z,100644.59
2018-05-29T03:37:12.881Z,100646.63
2018-05-29T03:39:41.838Z,100638.16
2018-05-29T03:42:19.070Z,100640.85
2018-05-29T03:44:48.180Z,100637.70
2018-05-29T03:47:17.412Z,100636.17
2018-05-29T03:49:46.438Z,100638.63
2018-05-29T03:52:15.979Z,100642.28
2018-05-29T03:54:44.973Z,100641.59
2018-05-29T03:57:14.513Z,100638.97
2018-05-29T03:59:43.466Z,100637.00
2018-05-29T04:02:14.382Z,100637.95
2018-05-29T04:04:43.380Z,100632.67
2018-05-29T04:07:22.505Z,100634.91
2018-05-29T04:09:51.511Z,100627.70
2018-05-29T04:12:20.531Z,100631.03
2018-05-29T04:14:50.158Z,100627.63
2018-05-29T04:17:20.039Z,100633.84
2018-05-29T04:20:03.752Z,100627.75
2018-05-29T04:22:34.010Z,100613.95
2018-05-29T04:25:03.407Z,100617.56
2018-05-29T04:27:32.384Z,100614.23
2018-05-29T04:30:01.339Z,100623.20
2018-05-29T04:32:30.839Z,100617.95
2018-05-29T04:35:08.755Z,100624.58
2018-05-29T04:37:38.124Z,100617.70
2018-05-29T04:40:07.691Z,100621.04
2018-05-29T04:42:36.809Z,100622.80
2018-05-29T04:45:05.908Z,100626.18
2018-05-29T04:47:34.921Z,100621.56
2018-05-29T04:50:03.918Z,100625.16
2018-05-29T04:52:45.883Z,100623.61
2018-05-29T04:55:14.975Z,100618.45
2018-05-29T04:57:43.938Z,100625.57
2018-05-29T05:00:13.174Z,100626.31
2018-05-29T05:02:42.218Z,100621.85
2018-05-29T05:05:11.654Z,100620.70
2018-05-29T05:07:40.764Z,100616.98
2018-05-29T05:10:09.741Z,100623.30
2018-05-29T05:12:38.696Z,100626.09
2018-05-29T05:15:07.723Z,100616.25
2018-05-29T05:17:36.720Z,100617.78
2018-05-29T05:20:05.690Z,100612.08
2018-05-29T05:22:45.471Z,100614.24
2018-05-29T05:25:16.281Z,100617.16
2018-05-29T05:27:51.644Z,100614.14
2018-05-29T05:30:20.624Z,100617.90
2018-05-29T05:32:49.618Z,100616.72
2018-05-29T05:35:18.721Z,100613.21
2018-05-29T05:37:47.936Z,100617.80
2018-05-29T05:40:16.948Z,100607.73
2018-05-29T05:42:45.995Z,100608.36
2018-05-29T05:45:14.967Z,100607.70
2018-05-29T05:47:43.950Z,100611.22
2018-05-29T05:50:16.538Z,100607.41
2018-05-29T05:52:46.020Z,100594.56
2018-05-29T05:55:15.021Z,100594.16
2018-05-29T05:57:45.733Z,100585.25
2018-05-29T06:00:16.827Z,100586.48
2018-05-29T06:02:47.571Z,100590.15
2018-05-29T06:05:18.713Z,100596.36
2018-05-29T06:07:50.520Z,100597.49
2018-05-29T06:10:21.232Z,100604.52
2018-05-29T06:12:51.494Z,100611.56
2018-05-29T06:15:25.567Z,100612.27
2018-05-29T06:18:00.701Z,100613.73
2018-05-29T06:20:33.676Z,100605.95
2018-05-29T06:23:02.718Z,100604.03
2018-05-29T06:25:31.714Z,100603.19
2018-05-29T06:30:59.807Z,100605.69
2018-05-29T06:33:29.054Z,100598.20
2018-05-29T06:35:58.270Z,100593.52
2018-05-29T06:38:28.395Z,100598.21
2018-05-29T06:40:57.949Z,100593.81
2018-05-29T06:43:27.472Z,100593.19
2018-05-29T06:45:56.865Z,100600.11
2018-05-29T06:48:26.294Z,100603.29
2018-05-29T06:50:56.322Z,100594.22
2018-05-29T06:53:25.398Z,100587.09
2018-05-29T06:55:54.500Z,100589.72
2018-05-29T06:58:25.011Z,100583.10
2018-05-29T07:00:55.001Z,100585.63
2018-05-29T07:03:24.128Z,100586.72
2018-05-29T07:05:53.189Z,100588.70
2018-05-29T07:08:22.491Z,100579.69
2018-05-29T07:10:51.495Z,100578.63
2018-05-29T07:13:27.068Z,100580.70
2018-05-29T07:15:56.222Z,100580.93
2018-05-29T07:18:25.463Z,100579.34
2018-05-29T07:20:54.592Z,100582.47
2018-05-29T07:23:23.758Z,100579.09
2018-05-29T07:25:53.112Z,100576.83
2018-05-29T07:28:22.652Z,100576.13
2018-05-29T07:31:04.435Z,100574.83
2018-05-29T07:33:33.707Z,100576.58
2018-05-29T07:36:02.693Z,100573.66
2018-05-29T07:38:31.658Z,100576.43
2018-05-29T07:41:03.194Z,100570.47
2018-05-29T07:43:32.148Z,100570.38
2018-05-29T07:46:01.186Z,100566.61
2018-05-29T07:48:30.117Z,100569.70
2018-05-29T07:50:59.229Z,100566.78
2018-05-29T07:53:34.474Z,100568.88
2018-05-29T07:56:04.645Z,100563.70
2018-05-29T07:58:33.777Z,100557.48
2018-05-29T08:01:08.566Z,100561.12
2018-05-29T08:03:42.519Z,100553.50
2018-05-29T08:06:12.324Z,100550.56
2018-05-29T08:08:44.308Z,100550.81
2018-05-29T08:11:13.367Z,100555.40
2018-05-29T08:13:46.109Z,100552.94
2018-05-29T08:16:21.215Z,100549.83
2018-05-29T08:18:50.901Z,100547.80
2018-05-29T08:21:20.303Z,100545.93
2018-05-29T08:23:53.451Z,100546.57
2018-05-29T08:26:22.433Z,100541.16
2018-05-29T08:28:54.051Z,100537.56
2018-05-29T08:31:23.727Z,100538.84
2018-05-29T08:33:52.913Z,100537.11
2018-05-29T08:36:22.003Z,100534.23
2018-05-29T08:38:51.281Z,100526.70
2018-05-29T08:41:20.386Z,100523.50
2018-05-29T08:43:49.719Z,100524.38
2018-05-29T08:46:33.097Z,100525.08
2018-05-29T08:49:02.232Z,100521.36
2018-05-29T08:51:31.256Z,100514.59
2018-05-29T08:54:01.810Z,100516.53
2018-05-29T08:56:34.931Z,100512.16
2018-05-29T08:59:03.994Z,100509.83
2018-05-29T09:01:33.094Z,100502.45
2018-05-29T09:04:02.219Z,100508.17
2018-05-29T09:06:37.117Z,100505.91
2018-05-29T09:09:08.430Z,100509.02
2018-05-29T09:11:37.887Z,100502.39
2018-05-29T09:14:06.977Z,100503.59
2018-05-29T09:16:36.234Z,100500.14
2018-05-29T09:19:05.380Z,100500.59
2018-05-29T09:21:34.482Z,100502.57
2018-05-29T09:24:03.754Z,100494.54
2018-05-29T09:26:41.511Z,100495.98
2018-05-29T09:29:17.922Z,100496.52
2018-05-29T09:31:47.584Z,100492.47
2018-05-29T09:34:16.769Z,100484.67
2018-05-29T09:36:46.618Z,100478.42
2018-05-29T09:42:18.504Z,100488.56
2018-05-29T09:44:47.634Z,100489.80
2018-05-29T09:47:17.018Z,100475.56
2018-05-29T09:49:46.328Z,100480.69
2018-05-29T09:52:15.674Z,100476.22
2018-05-29T09:54:44.901Z,100478.73
2018-05-29T09:57:14.021Z,100472.81
2018-05-29T09:59:43.103Z,100471.48
2018-05-29T10:02:12.066Z,100468.75
2018-05-29T10:04:42.880Z,100462.82
2018-05-29T10:07:12.000Z,100465.27
2018-05-29T10:09:41.557Z,100466.27
2018-05-29T10:12:10.771Z,100458.84
2018-05-29T10:14:39.864Z,100456.60
2018-05-29T10:17:09.178Z,100461.55
2018-05-29T10:19:38.652Z,100453.92
2018-05-29T10:22:07.897Z,100448.28
2018-05-29T10:24:37.852Z,100452.70
2018-05-29T10:27:07.373Z,100448.61
2018-05-29T10:29:42.819Z,100437.70
2018-05-29T10:32:12.045Z,100444.37
2018-05-29T10:34:41.544Z,100445.17
2018-05-29T10:37:10.542Z,100437.66
2018-05-29T10:39:41.524Z,100439.45
2018-05-29T10:42:12.522Z,100426.94
2018-05-29T10:44:42.055Z,100427.23
2018-05-29T10:47:11.133Z,100428.14
2018-05-29T10:49:40.161Z,100418.16
2018-05-29T10:52:12.007Z,100421.55
2018-05-29T10:54:53.012Z,100423.27
2018-05-29T10:57:26.092Z,100409.16
2018-05-29T10:59:55.708Z,100419.44
2018-05-29T11:02:25.007Z,100417.09
2018-05-29T11:04:54.554Z,100414.05
2018-05-29T11:07:25.357Z,100412.04
2018-05-29T11:09:54.758Z,100408.99
2018-05-29T11:12:36.125Z,100407.47
2018-05-29T11:15:08.179Z,100403.58
2018-05-29T11:17:37.531Z,100394.67
2018-05-29T11:20:06.649Z,100388.05
2018-05-29T11:22:41.227Z,100396.83
2018-05-29T11:25:10.372Z,100389.16
2018-05-29T11:27:39.739Z,100393.79
2018-05-29T11:30:09.017Z,100384.38
2018-05-29T11:32:38.036Z,100387.66
2018-05-29T11:35:07.221Z,100386.50
2018-05-29T11:37:36.435Z,100386.39
2018-05-29T11:40:05.371Z,100387.19
2018-05-29T11:42:45.479Z,100384.22
2018-05-29T11:45:14.603Z,100381.09
2018-05-29T11:47:44.132Z,100379.39
2018-05-29T11:50:13.810Z,100379.05
2018-05-29T11:52:42.775Z,100370.70
2018-05-29T11:55:16.684Z,100372.19
2018-05-29T11:57:45.925Z,100367.30
2018-05-29T12:00:15.685Z,100367.05
2018-05-29T12:02:45.027Z,100357.31
2018-05-29T12:05:14.061Z,100354.14
2018-05-29T12:07:43.970Z,100358.00
2018-05-29T12:10:13.079Z,100348.53
2018-05-29T12:12:42.302Z,100352.73
2018-05-29T12:15:11.467Z,100348.38
2018-05-29T12:17:40.725Z,100345.63
2018-05-29T12:20:09.569Z,100344.75
2018-05-29T12:22:53.702Z,100333.73
2018-05-29T12:25:29.738Z,100341.69
2018-05-29T12:27:59.087Z,100339.95
2018-05-29T12:30:28.527Z,100337.55
2018-05-29T12:32:57.817Z,100328.50
2018-05-29T12:35:27.287Z,100325.37
2018-05-29T12:38:11.774Z,100335.73
2018-05-29T12:40:40.875Z,100324.97
2018-05-29T12:43:10.269Z,100318.09
2018-05-29T12:45:39.427Z,100318.47
2018-05-29T12:48:09.028Z,100316.81
2018-05-29T12:50:38.386Z,100313.17
2018-05-29T12:53:07.830Z,100316.66
2018-05-29T12:55:49.468Z,100306.16
2018-05-29T12:58:18.785Z,100298.66
2018-05-29T13:00:47.966Z,100295.94
2018-05-29T13:03:17.287Z,100291.82
2018-05-29T13:05:46.387Z,100290.20
2018-05-29T13:11:01.032Z,100276.40
2018-05-29T13:13:30.006Z,100279.25
2018-05-29T13:15:58.998Z,100265.88
2018-05-29T13:18:28.141Z,100270.79
2018-05-29T13:20:57.474Z,100271.27
2018-05-29T13:23:26.584Z,100260.91
2018-05-29T13:25:55.607Z,100266.63
2018-05-29T13:28:24.570Z,100255.89
2018-05-29T13:30:53.823Z,100260.96
2018-05-29T13:33:22.836Z,100261.70
2018-05-29T13:36:02.742Z,100264.73
2018-05-29T13:38:31.790Z,100255.72
2018-05-29T13:41:06.571Z,100256.22
2018-05-29T13:43:35.585Z,100258.08
2018-05-29T13:46:04.594Z,100257.19
2018-05-29T13:51:23.122Z,100247.33
2018-05-29T13:53:52.164Z,100243.81
2018-05-29T13:56:21.167Z,100242.45
2018-05-29T13:58:50.282Z,100247.64
2018-05-29T14:01:19.271Z,100242.07
2018-05-29T14:03:48.300Z,100231.63
2018-05-29T14:06:17.333Z,100234.98
2018-05-29T14:08:47.130Z,100227.20
2018-05-29T14:11:16.128Z,100218.36
2018-05-29T14:13:46.125Z,100216.53
2018-05-29T14:16:15.128Z,100216.61
2018-05-29T14:18:55.205Z,100219.47
2018-05-29T14:24:08.179Z,100216.69
2018-05-29T14:26:37.190Z,100218.88
2018-05-29T14:29:06.167Z,100215.88
2018-05-29T14:31:35.243Z,100214.99
2018-05-29T14:34:04.517Z,100215.62
2018-05-29T14:36:33.483Z,100205.67
2018-05-29T14:39:02.517Z,100202.50
2018-05-29T14:41:31.583Z,100204.80
2018-05-29T14:44:00.643Z,100188.55
2018-05-29T14:46:29.601Z,100191.64
2018-05-29T14:48:59.333Z,100181.00
2018-05-29T14:51:29.158Z,100184.84
2018-05-29T14:54:00.285Z,100193.33
2018-05-29T14:56:29.373Z,100198.48
2018-05-29T14:58:58.326Z,100204.19
2018-05-29T15:01:27.287Z,100203.50
2018-05-29T15:03:56.368Z,100215.61
2018-05-29T15:06:25.350Z,100213.87
2018-05-29T15:08:54.305Z,100221.23
2018-05-29T15:11:23.432Z,100215.70
2018-05-29T15:13:52.415Z,100204.80
2018-05-29T15:16:21.365Z,100199.52
2018-05-29T15:18:50.452Z,100208.55
2018-05-29T15:21:19.768Z,100215.17
2018-05-29T15:23:48.725Z,100225.99
2018-05-29T15:26:17.931Z,100224.75
2018-05-29T15:28:47.306Z,100241.34
2018-05-29T15:31:16.344Z,100260.52
2018-05-29T15:33:45.665Z,100258.81
2018-05-29T15:36:14.626Z,100275.31
2018-05-29T15:38:43.881Z,100273.27
2018-05-29T15:41:12.899Z,100271.48
2018-05-29T15:43:42.152Z,100269.53
2018-05-29T15:46:11.426Z,100266.31
2018-05-29T15:48:40.532Z,100272.92
2018-05-29T15:51:09.550Z,100277.17
2018-05-29T15:53:38.584Z,100291.62
2018-05-29T15:56:07.636Z,100298.58
2018-05-29T15:58:36.619Z,100288.55
2018-05-29T16:01:06.392Z,100294.61
2018-05-29T16:03:35.415Z,100277.63
2018-05-29T16:06:04.515Z,100286.84
2018-05-29T16:08:33.513Z,100281.97
2018-05-29T16:11:02.722Z,100283.43
2018-05-29T16:13:31.981Z,100280.12
2018-05-29T16:16:01.038Z,100273.84
2018-05-29T16:18:30.151Z,100268.92
2018-05-29T16:20:59.174Z,100255.20
2018-05-29T16:23:28.166Z,100262.01
2018-05-29T16:25:57.222Z,100266.80
2018-05-29T16:28:26.513Z,100276.24
2018-05-29T16:30:55.488Z,100281.73
2018-05-29T16:33:24.581Z,100280.97
2018-05-29T16:35:53.578Z,100272.77
2018-05-29T16:38:22.576Z,100278.27
2018-05-29T16:40:51.649Z,100274.41
2018-05-29T16:43:22.377Z,100274.42
2018-05-29T16:45:51.560Z,100263.92
2018-05-29T16:48:20.537Z,100274.23
2018-05-29T16:50:49.531Z,100255.72
2018-05-29T16:53:18.597Z,100246.97
2018-05-29T16:55:47.611Z,100250.19
2018-05-29T16:58:16.887Z,100234.61
2018-05-29T17:00:45.981Z,100232.41
2018-05-29T17:03:14.999Z,100233.92
2018-05-29T17:05:44.023Z,100239.58
2018-05-29T17:08:13.198Z,100236.31
2018-05-29T17:10:42.322Z,100241.66
2018-05-29T17:13:11.346Z,100252.03
2018-05-29T17:15:40.717Z,100264.41
2018-05-29T17:18:10.034Z,100281.59
2018-05-29T17:20:39.066Z,100283.60
2018-05-29T17:23:08.820Z,100282.77
2018-05-29T17:25:38.031Z,100270.66
2018-05-29T17:28:07.182Z,100253.46
2018-05-29T17:30:36.442Z,100257.54
2018-05-29T17:33:06.900Z,100249.20
2018-05-29T17:35:36.933Z,100235.13
2018-05-29T17:38:07.075Z,100220.48
2018-05-29T17:40:37.570Z,100218.48
2018-05-29T17:43:08.366Z,100201.95
2018-05-29T17:45:38.600Z,100199.03
2018-05-29T17:48:08.335Z,100190.05
2018-05-29T17:50:38.137Z,100186.58
2018-05-29T17:53:08.527Z,100184.75
2018-05-29T17:55:40.299Z,100178.90
2018-05-29T17:58:11.198Z,100177.95
2018-05-29T18:00:42.777Z,100176.47
2018-05-29T18:03:13.692Z,100176.63
2018-05-29T18:05:45.065Z,100175.55
2018-05-29T18:08:16.342Z,100180.55
2018-05-29T18:10:47.578Z,100168.63
2018-05-29T18:13:18.387Z,100182.52
2018-05-29T18:15:49.545Z,100184.78
2018-05-29T18:18:20.426Z,100196.25
2018-05-29T18:20:52.638Z,100200.69
2018-05-29T18:23:24.270Z,100204.90
2018-05-29T18:25:55.450Z,100212.91
2018-05-29T18:28:27.539Z,100214.85
2018-05-29T18:30:59.002Z,100227.97
2018-05-29T18:33:30.803Z,100230.03
2018-05-29T18:36:01.740Z,100234.88
2018-05-29T18:38:32.816Z,100239.48
2018-05-29T18:41:04.653Z,100239.12
2018-05-29T18:43:36.053Z,100251.86
2018-05-29T18:46:07.756Z,100249.88
2018-05-29T18:48:39.292Z,100258.61
2018-05-29T18:51:11.066Z,100261.84
2018-05-29T18:53:43.309Z,100258.38
2018-05-29T18:56:15.252Z,100260.37
2018-05-29T18:58:48.068Z,100268.02
2018-05-29T19:01:19.789Z,100271.43
2018-05-29T19:03:52.159Z,100271.06
2018-05-29T19:06:24.037Z,100275.63
2018-05-29T19:08:55.691Z,100279.26
2018-05-29T19:11:27.680Z,100285.04
2018-05-29T19:14:00.034Z,100293.28
2018-05-29T19:16:32.144Z,100287.64
2018-05-29T19:19:04.173Z,100290.66
2018-05-29T19:21:35.634Z,100291.06
2018-05-29T19:24:07.558Z,100292.53
2018-05-29T19:26:40.740Z,100287.75
2018-05-29T19:29:12.954Z,100296.93
2018-05-29T19:31:46.078Z,100294.14
2018-05-29T19:34:19.652Z,100303.05
2018-05-29T19:36:51.952Z,100294.67
2018-05-29T19:39:24.655Z,100299.61
2018-05-29T19:41:56.400Z,100300.37
2018-05-29T19:44:29.374Z,100299.70
2018-05-29T19:47:00.864Z,100296.70
2018-05-29T19:49:32.909Z,100294.20
2018-05-29T19:52:05.255Z,100291.70
2018-05-29T19:54:37.157Z,100285.58
2018-05-29T19:57:08.877Z,100293.89
2018-05-29T19:59:40.689Z,100294.05
2018-05-29T20:02:12.304Z,100304.66
2018-05-29T20:04:44.354Z,100302.20
2018-05-29T20:07:16.488Z,100302.34
2018-05-29T20:09:48.236Z,100292.45
2018-05-29T20:12:20.251Z,100293.06
2018-05-29T20:14:52.282Z,100287.11
2018-05-29T20:17:34.485Z,100289.11
2018-05-29T20:20:06.463Z,100281.97
2018-05-29T20:22:38.573Z,100287.37
2018-05-29T20:25:10.104Z,100279.23
2018-05-29T20:27:41.853Z,100275.88
2018-05-29T20:30:18.074Z,100280.80
2018-05-29T20:32:49.494Z,100275.70
2018-05-29T20:35:19.957Z,100273.06
2018-05-29T20:37:50.251Z,100282.87
2018-05-29T20:40:20.432Z,100277.39
2018-05-29T20:42:51.181Z,100281.16
2018-05-29T20:45:20.690Z,100275.84
2018-05-29T20:47:49.849Z,100283.52
2018-05-29T20:50:18.841Z,100288.91
2018-05-29T20:52:47.932Z,100291.97
2018-05-29T20:55:16.987Z,100304.31
2018-05-29T20:57:46.336Z,100299.80
2018-05-29T21:00:15.467Z,100295.14
2018-05-29T21:02:44.565Z,100298.30
2018-05-29T21:05:13.540Z,100301.43
2018-05-29T21:07:42.587Z,100300.14
2018-05-29T21:10:11.605Z,100302.80
2018-05-29T21:12:40.606Z,100299.09
2018-05-29T21:15:09.812Z,100294.34
2018-05-29T21:17:38.870Z,100305.11
2018-05-29T21:20:07.933Z,100297.52
2018-05-29T21:22:37.235Z,100312.19
2018-05-29T21:25:06.229Z,100312.63
2018-05-29T21:27:35.358Z,100310.19
2018-05-29T21:30:04.509Z,100309.09
2018-05-29T21:32:33.840Z,100299.34
2018-05-29T21:35:03.034Z,100305.54
2018-05-29T21:37:32.310Z,100301.67
2018-05-29T21:40:01.604Z,100299.34
2018-05-29T21:42:30.878Z,100299.72
2018-05-29T21:44:59.854Z,100282.88
2018-05-29T21:47:29.208Z,100284.91
2018-05-29T21:49:58.313Z,100279.39
2018-05-29T21:52:27.305Z,100282.56
2018-05-29T21:54:56.334Z,100276.65
2018-05-29T21:57:25.493Z,100274.37
2018-05-29T21:59:54.499Z,100271.75
2018-05-29T22:02:23.712Z,100269.88
2018-05-29T22:04:52.692Z,100270.41
2018-05-29T22:07:21.715Z,100267.59
2018-05-29T22:09:50.732Z,100262.41
2018-05-29T22:12:19.682Z,100271.75
2018-05-29T22:14:48.711Z,100272.59
2018-05-29T22:17:17.875Z,100270.03
2018-05-29T22:19:46.988Z,100276.14
2018-05-29T22:22:15.957Z,100276.16
2018-05-29T22:24:44.954Z,100269.30
2018-05-29T22:27:14.352Z,100266.75
2018-05-29T22:29:43.582Z,100265.75
2018-05-29T22:32:13.221Z,100266.47
2018-05-29T22:34:42.496Z,100269.19
2018-05-29T22:37:11.530Z,100271.57
2018-05-29T22:39:40.527Z,100276.11
2018-05-29T22:42:09.529Z,100273.94
2018-05-29T22:44:38.779Z,100274.24
2018-05-29T22:47:08.221Z,100275.69
2018-05-29T22:49:37.792Z,100272.50
2018-05-29T22:52:06.765Z,100271.58
2018-05-29T22:54:35.703Z,100275.91
2018-05-29T22:57:04.694Z,100278.07
2018-05-29T22:59:34.105Z,100282.22
2018-05-29T23:02:03.117Z,100277.97
2018-05-29T23:04:32.107Z,100269.44
2018-05-29T23:07:01.106Z,100273.28
2018-05-29T23:09:31.674Z,100280.05
2018-05-29T23:12:02.711Z,100284.87
2018-05-29T23:14:33.606Z,100281.95
2018-05-29T23:17:04.679Z,100278.75
2018-05-29T23:19:35.579Z,100273.50
2018-05-29T23:22:06.658Z,100266.47
2018-05-29T23:24:36.601Z,100267.58
2018-05-29T23:27:07.286Z,100279.62
2018-05-29T23:29:38.227Z,100285.18
2018-05-29T23:32:08.741Z,100281.84
2018-05-29T23:34:38.963Z,100273.86
2018-05-29T23:37:09.942Z,100274.86
2018-05-29T23:39:41.034Z,100266.52
2018-05-29T23:42:12.189Z,100274.02
2018-05-29T23:44:42.931Z,100254.73
2018-05-29T23:47:13.859Z,100264.48
2018-05-29T23:49:45.439Z,100261.39
2018-05-29T23:52:16.130Z,100261.73
2018-05-29T23:54:47.041Z,100262.58
2018-05-29T23:57:17.903Z,100269.61
2018-05-29T23:59:49.009Z,100262.17
